createdAt,value
2019-04-23T00:02:21.494Z,7.28
2019-04-23T00:04:55.588Z,7.35
2019-04-23T00:07:44.487Z,7.18
2019-04-23T00:10:03.562Z,7.05
2019-04-23T00:12:45.231Z,6.88
2019-04-23T00:17:42.658Z,6.81
2019-04-23T00:20:14.690Z,6.81
2019-04-23T00:22:53.287Z,7.02
2019-04-23T00:25:45.020Z,7.23
2019-04-23T00:28:14.163Z,7.23
2019-04-23T00:33:31.425Z,7.15
2019-04-23T00:35:59.689Z,7.26
2019-04-23T00:38:33.560Z,7.09
2019-04-23T00:43:43.118Z,6.88
2019-04-23T00:46:15.562Z,6.74
2019-04-23T00:48:51.855Z,6.63
2019-04-23T00:51:20.360Z,6.63
2019-04-23T00:53:51.417Z,6.58
2019-04-23T00:56:38.703Z,6.54
2019-04-23T00:59:01.416Z,6.55
2019-04-23T01:01:44.458Z,6.51
2019-04-23T01:04:04.805Z,6.56
2019-04-23T01:06:46.051Z,6.51
2019-04-23T01:09:15.272Z,6.47
2019-04-23T01:11:48.199Z,6.45
2019-04-23T01:14:20.239Z,6.60
2019-04-23T01:16:55.057Z,6.56
2019-04-23T01:21:49.362Z,6.69
2019-04-23T01:24:34.422Z,6.77
2019-04-23T01:30:15.911Z,6.63
2019-04-23T01:32:44.030Z,6.53
2019-04-23T01:37:46.538Z,6.43
2019-04-23T01:40:26.023Z,6.56
2019-04-23T01:42:58.708Z,6.67
2019-04-23T01:45:48.130Z,6.64
2019-04-23T01:48:09.577Z,6.67
2019-04-23T01:50:48.328Z,6.49
2019-04-23T01:53:24.709Z,6.37
2019-04-23T01:55:52.705Z,6.30
2019-04-23T01:58:40.300Z,6.26
2019-04-23T02:01:00.738Z,6.20
2019-04-23T02:03:34.704Z,6.21
2019-04-23T02:06:11.716Z,6.30
2019-04-23T02:08:44.632Z,6.41
2019-04-23T02:11:28.164Z,6.46
2019-04-23T02:16:21.693Z,6.32
2019-04-23T02:21:26.013Z,6.30
2019-04-23T02:23:57.301Z,6.20
2019-04-23T02:26:33.895Z,6.16
2019-04-23T02:34:31.348Z,6.32
2019-04-23T02:36:57.796Z,6.29
2019-04-23T02:39:32.740Z,6.18
2019-04-23T02:47:23.119Z,6.38
2019-04-23T02:52:21.371Z,6.35
2019-04-23T02:57:18.680Z,6.26
2019-04-23T03:02:47.844Z,6.30
2019-04-23T03:05:00.870Z,6.39
2019-04-23T03:07:45.624Z,6.51
2019-04-23T03:13:10.230Z,6.83
2019-04-23T03:15:52.679Z,6.99
2019-04-23T03:23:44.261Z,7.34
2019-04-23T03:26:36.856Z,7.38
2019-04-23T03:29:06.513Z,7.47
2019-04-23T03:34:45.432Z,7.75
2019-04-23T03:37:14.364Z,7.95
2019-04-23T03:39:05.838Z,8.18
2019-04-23T03:41:48.271Z,8.31
2019-04-23T03:44:27.058Z,8.46
2019-04-23T03:46:51.410Z,8.53
2019-04-23T03:49:32.783Z,8.77
2019-04-23T03:54:42.153Z,8.80
2019-04-23T03:57:24.583Z,8.84
2019-04-23T03:59:51.961Z,8.87
2019-04-23T04:02:36.517Z,8.93
2019-04-23T04:04:44.532Z,9.09
2019-04-23T04:10:07.828Z,9.34
2019-04-23T04:12:39.663Z,9.60
2019-04-23T04:15:06.174Z,9.60
2019-04-23T04:18:14.018Z,9.75
2019-04-23T04:20:19.758Z,9.78
2019-04-23T04:23:15.391Z,9.87
2019-04-23T04:25:30.703Z,10.05
2019-04-23T04:28:12.374Z,10.14
2019-04-23T04:30:33.769Z,10.30
2019-04-23T04:33:09.798Z,10.37
2019-04-23T04:40:42.184Z,10.77
2019-04-23T04:46:10.015Z,11.09
2019-04-23T04:48:22.987Z,11.16
2019-04-23T04:51:00.731Z,11.27
2019-04-23T04:53:46.705Z,11.36
2019-04-23T04:58:46.709Z,11.47
2019-04-23T05:01:13.827Z,11.55
2019-04-23T05:03:57.901Z,11.63
2019-04-23T05:08:54.405Z,11.84
2019-04-23T05:11:34.990Z,11.85
2019-04-23T05:16:29.453Z,12.02
2019-04-23T05:21:46.615Z,12.41
2019-04-23T05:24:15.033Z,12.27
2019-04-23T05:26:37.598Z,12.33
2019-04-23T05:29:14.973Z,12.43
2019-04-23T05:31:56.050Z,12.56
2019-04-23T05:34:38.081Z,12.73
2019-04-23T05:37:07.108Z,12.74
2019-04-23T05:42:10.629Z,12.73
2019-04-23T05:44:52.539Z,12.91
2019-04-23T05:47:21.703Z,12.95
2019-04-23T05:49:52.026Z,13.14
2019-04-23T05:52:34.365Z,13.20
2019-04-23T05:55:01.686Z,13.36
2019-04-23T05:57:42.741Z,13.53
2019-04-23T06:00:19.339Z,13.59
2019-04-23T06:02:59.225Z,13.48
2019-04-23T06:05:30.501Z,13.50
2019-04-23T06:08:09.534Z,13.73
2019-04-23T06:10:40.693Z,13.84
2019-04-23T06:13:13.694Z,13.82
2019-04-23T06:15:58.150Z,13.93
2019-04-23T06:23:30.451Z,14.48
2019-04-23T06:26:15.500Z,14.60
2019-04-23T06:28:31.551Z,14.78
2019-04-23T06:31:09.738Z,15.10
2019-04-23T06:33:41.802Z,15.13
2019-04-23T06:36:19.518Z,15.03
2019-04-23T06:41:30.590Z,15.40
2019-04-23T06:44:09.199Z,15.66
2019-04-23T06:46:37.379Z,15.74
2019-04-23T06:49:14.455Z,15.95
2019-04-23T06:54:31.524Z,16.30
2019-04-23T06:59:30.765Z,16.23
2019-04-23T07:02:07.989Z,16.33
2019-04-23T07:04:41.010Z,16.32
2019-04-23T07:07:36.571Z,16.45
2019-04-23T07:09:47.127Z,16.74
2019-04-23T07:12:25.732Z,16.90
2019-04-23T07:15:13.264Z,17.44
2019-04-23T07:17:30.990Z,17.59
2019-04-23T07:20:06.767Z,17.60
2019-04-23T07:22:46.871Z,17.80
2019-04-23T07:25:15.922Z,17.76
2019-04-23T07:27:51.112Z,17.77
2019-04-23T07:30:20.913Z,17.72
2019-04-23T07:32:56.638Z,18.08
2019-04-23T07:35:31.991Z,18.37
2019-04-23T07:41:47.931Z,18.34
2019-04-23T07:44:24.570Z,18.37
2019-04-23T07:47:16.278Z,18.48
2019-04-23T07:49:52.224Z,18.36
2019-04-23T07:52:31.983Z,18.45
2019-04-23T07:54:58.761Z,18.59
2019-04-23T08:00:00.929Z,18.83
2019-04-23T08:02:45.281Z,18.95
2019-04-23T08:05:15.630Z,18.67
2019-04-23T08:07:47.294Z,18.81
2019-04-23T08:10:14.155Z,18.57
2019-04-23T08:12:52.733Z,18.74
2019-04-23T08:15:28.278Z,18.97
2019-04-23T08:17:59.027Z,19.19
2019-04-23T08:20:35.098Z,19.61
2019-04-23T08:23:21.784Z,19.61
2019-04-23T08:28:59.641Z,19.30
2019-04-23T08:31:16.542Z,19.44
2019-04-23T08:33:58.403Z,19.62
2019-04-23T08:36:29.452Z,19.82
2019-04-23T08:38:58.685Z,19.80
2019-04-23T08:41:33.773Z,19.96
2019-04-23T08:47:02.666Z,20.39
2019-04-23T08:49:47.623Z,20.52
2019-04-23T08:54:48.296Z,20.37
2019-04-23T08:57:14.456Z,20.44
2019-04-23T09:02:30.610Z,20.27
2019-04-23T09:05:00.518Z,20.34
2019-04-23T09:07:27.600Z,20.39
2019-04-23T09:10:04.726Z,20.28
2019-04-23T09:12:55.236Z,20.04
2019-04-23T09:15:15.383Z,20.31
2019-04-23T09:17:47.818Z,20.61
2019-04-23T09:20:23.296Z,20.75
2019-04-23T09:22:53.032Z,20.97
2019-04-23T09:25:37.314Z,20.96
2019-04-23T09:27:59.456Z,21.10
2019-04-23T09:30:42.811Z,21.03
2019-04-23T09:33:41.384Z,20.89
2019-04-23T09:36:25.679Z,20.78
2019-04-23T09:39:06.351Z,20.61
2019-04-23T09:41:37.254Z,20.97
2019-04-23T09:44:56.272Z,21.31
2019-04-23T09:47:16.041Z,21.13
2019-04-23T09:49:50.155Z,20.94
2019-04-23T09:57:47.355Z,21.33
2019-04-23T10:00:26.906Z,21.28
2019-04-23T10:02:45.621Z,21.66
2019-04-23T10:05:22.453Z,21.78
2019-04-23T10:07:53.340Z,21.43
2019-04-23T10:10:16.475Z,21.94
2019-04-23T10:12:50.183Z,21.95
2019-04-23T10:15:26.673Z,22.29
2019-04-23T10:17:56.370Z,22.55
2019-04-23T10:20:29.033Z,22.58
2019-04-23T10:23:02.147Z,22.49
2019-04-23T10:25:36.041Z,23.65
2019-04-23T10:28:25.079Z,24.12
2019-04-23T10:30:58.713Z,24.91
2019-04-23T10:33:31.786Z,25.12
2019-04-23T10:36:10.760Z,25.09
2019-04-23T10:38:41.690Z,25.91
2019-04-23T10:41:13.967Z,26.45
2019-04-23T10:43:52.216Z,27.16
2019-04-23T10:46:42.990Z,27.43
2019-04-23T10:52:13.492Z,26.63
2019-04-23T10:54:52.303Z,27.34
2019-04-23T10:57:12.776Z,27.01
2019-04-23T10:59:43.303Z,27.28
2019-04-23T11:07:32.529Z,28.00
2019-04-23T11:10:08.600Z,27.37
2019-04-23T11:12:46.408Z,26.86
2019-04-23T11:15:32.240Z,26.17
2019-04-23T11:18:02.796Z,27.98
2019-04-23T11:23:01.664Z,27.96
2019-04-23T11:28:21.390Z,27.52
2019-04-23T11:31:03.497Z,28.30
2019-04-23T11:33:37.962Z,27.92
2019-04-23T11:36:41.075Z,28.40
2019-04-23T11:38:56.225Z,27.84
2019-04-23T11:41:32.292Z,28.34
2019-04-23T11:43:53.413Z,27.71
2019-04-23T11:49:34.667Z,29.34
2019-04-23T11:59:31.508Z,29.19
2019-04-23T12:02:12.102Z,29.68
2019-04-23T12:05:17.287Z,29.68
2019-04-23T12:07:50.276Z,29.56
2019-04-23T12:13:16.847Z,29.72
2019-04-23T12:15:51.722Z,27.19
2019-04-23T12:18:28.396Z,28.02
2019-04-23T12:21:14.283Z,29.42
2019-04-23T12:26:31.370Z,29.10
2019-04-23T12:28:49.713Z,29.53
2019-04-23T12:31:26.674Z,30.01
2019-04-23T12:34:09.624Z,29.48
2019-04-23T12:39:30.421Z,29.76
2019-04-23T12:42:11.184Z,29.10
2019-04-23T12:44:44.233Z,29.38
2019-04-23T12:47:18.751Z,29.08
2019-04-23T12:52:17.115Z,29.46
2019-04-23T12:54:59.014Z,29.33
2019-04-23T12:57:29.752Z,28.97
2019-04-23T12:59:58.330Z,29.18
2019-04-23T13:02:38.325Z,29.45
2019-04-23T13:05:12.441Z,29.51
2019-04-23T13:10:15.856Z,29.05
2019-04-23T13:20:33.557Z,28.81
2019-04-23T13:25:49.504Z,29.74
2019-04-23T13:28:21.439Z,30.38
2019-04-23T13:30:53.035Z,30.35
2019-04-23T13:36:08.443Z,30.61
2019-04-23T13:38:43.841Z,28.55
2019-04-23T13:41:17.167Z,28.51
2019-04-23T13:46:14.915Z,27.92
2019-04-23T13:48:46.971Z,28.47
2019-04-23T13:51:26.017Z,27.69
2019-04-23T13:54:04.190Z,25.50
2019-04-23T13:57:03.222Z,23.67
2019-04-23T13:59:29.030Z,22.80
2019-04-23T14:01:57.952Z,22.60
2019-04-23T14:04:40.283Z,22.49
2019-04-23T14:07:09.860Z,22.30
2019-04-23T14:09:57.155Z,21.85
2019-04-23T14:12:17.723Z,22.11
2019-04-23T14:15:06.461Z,22.52
2019-04-23T14:17:46.738Z,22.84
2019-04-23T14:20:09.919Z,23.98
2019-04-23T14:25:11.506Z,25.99
2019-04-23T14:28:01.335Z,26.36
2019-04-23T14:30:29.933Z,24.95
2019-04-23T14:33:00.934Z,24.58
2019-04-23T14:38:15.693Z,22.69
2019-04-23T14:40:43.146Z,22.43
2019-04-23T14:43:14.631Z,22.07
2019-04-23T14:46:27.115Z,21.88
2019-04-23T14:48:27.906Z,21.74
2019-04-23T14:51:11.204Z,21.70
2019-04-23T14:53:30.192Z,21.12
2019-04-23T14:56:09.415Z,21.12
2019-04-23T15:11:45.149Z,21.20
2019-04-23T15:17:00.404Z,20.42
2019-04-23T15:22:13.620Z,20.08
2019-04-23T15:24:48.639Z,19.87
2019-04-23T15:29:49.994Z,19.64
2019-04-23T15:32:38.142Z,19.44
2019-04-23T15:35:18.566Z,19.63
2019-04-23T15:45:28.558Z,19.14
2019-04-23T15:48:03.337Z,18.96
2019-04-23T15:50:52.419Z,18.90
2019-04-23T15:55:51.773Z,18.57
2019-04-23T15:58:24.689Z,18.55
2019-04-23T16:00:55.838Z,18.45
2019-04-23T16:02:55.999Z,18.36
2019-04-23T16:05:27.884Z,18.27
2019-04-23T16:08:23.915Z,18.20
2019-04-23T16:11:10.359Z,18.02
2019-04-23T16:13:36.545Z,17.91
2019-04-23T16:16:18.703Z,17.89
2019-04-23T16:19:07.256Z,17.88
2019-04-23T16:21:47.721Z,17.66
2019-04-23T16:24:13.581Z,17.51
2019-04-23T16:26:50.674Z,17.64
2019-04-23T16:31:54.730Z,17.37
2019-04-23T16:34:33.229Z,17.11
2019-04-23T16:37:09.907Z,16.95
2019-04-23T16:39:49.245Z,16.82
2019-04-23T16:45:12.437Z,16.64
2019-04-23T16:47:26.495Z,16.55
2019-04-23T16:52:36.698Z,16.38
2019-04-23T16:55:12.917Z,16.20
2019-04-23T16:57:43.826Z,16.10
2019-04-23T17:00:22.926Z,15.92
2019-04-23T17:03:02.358Z,15.78
2019-04-23T17:05:33.418Z,15.60
2019-04-23T17:08:24.281Z,15.51
2019-04-23T17:10:38.666Z,15.60
2019-04-23T17:15:53.825Z,15.43
2019-04-23T17:18:16.742Z,15.49
2019-04-23T17:20:53.092Z,15.33
2019-04-23T17:23:34.522Z,15.24
2019-04-23T17:26:04.232Z,15.19
2019-04-23T17:28:33.038Z,15.03
2019-04-23T17:31:26.325Z,14.92
2019-04-23T17:39:08.551Z,14.70
2019-04-23T17:42:01.427Z,14.69
2019-04-23T17:47:14.160Z,14.56
2019-04-23T17:49:53.936Z,14.47
2019-04-23T17:52:20.314Z,14.49
2019-04-23T17:54:55.248Z,14.47
2019-04-23T18:02:55.879Z,14.17
2019-04-23T18:05:27.368Z,13.95
2019-04-23T18:10:30.352Z,13.75
2019-04-23T18:12:58.392Z,13.67
2019-04-23T18:15:24.373Z,13.66
2019-04-23T18:18:10.104Z,13.62
2019-04-23T18:20:52.178Z,13.53
2019-04-23T18:23:18.331Z,13.57
2019-04-23T18:26:07.950Z,13.44
2019-04-23T18:28:37.120Z,13.30
2019-04-23T18:31:14.336Z,13.24
2019-04-23T18:36:13.242Z,13.47
2019-04-23T18:38:53.075Z,13.56
2019-04-23T18:41:18.102Z,13.67
2019-04-23T18:44:02.943Z,13.67
2019-04-23T18:46:37.239Z,13.88
2019-04-23T18:49:10.879Z,13.86
2019-04-23T18:51:55.105Z,13.82
2019-04-23T18:54:24.044Z,13.75
2019-04-23T18:59:39.289Z,13.66
2019-04-23T19:02:17.356Z,13.67
2019-04-23T19:05:08.362Z,13.59
2019-04-23T19:07:51.628Z,13.47
2019-04-23T19:10:29.260Z,13.36
2019-04-23T19:12:56.997Z,13.28
2019-04-23T19:18:12.917Z,13.39
2019-04-23T19:21:03.805Z,13.36
2019-04-23T19:23:42.793Z,13.25
2019-04-23T19:26:41.815Z,13.22
2019-04-23T19:31:46.231Z,13.17
2019-04-23T19:44:38.398Z,13.18
2019-04-23T19:47:33.254Z,13.03
2019-04-23T19:52:11.376Z,13.07
2019-04-23T19:57:28.518Z,12.91
2019-04-23T19:59:57.913Z,13.01
2019-04-23T20:02:58.250Z,12.99
2019-04-23T20:05:03.091Z,12.93
2019-04-23T20:07:48.893Z,12.85
2019-04-23T20:10:17.490Z,12.75
2019-04-23T20:12:44.590Z,12.81
2019-04-23T20:15:29.559Z,12.66
2019-04-23T20:17:54.194Z,12.60
2019-04-23T20:20:45.426Z,12.59
2019-04-23T20:23:13.984Z,12.47
2019-04-23T20:26:10.277Z,12.27
2019-04-23T20:28:57.800Z,12.29
2019-04-23T20:34:24.400Z,12.22
2019-04-23T20:36:46.197Z,12.09
2019-04-23T20:39:34.932Z,12.12
2019-04-23T20:42:08.954Z,12.19
2019-04-23T20:49:42.736Z,12.26
2019-04-23T20:57:39.182Z,11.95
2019-04-23T21:00:03.569Z,11.90
2019-04-23T21:03:08.266Z,11.74
2019-04-23T21:05:15.438Z,11.70
2019-04-23T21:15:37.415Z,11.66
2019-04-23T21:20:45.171Z,11.66
2019-04-23T21:23:14.253Z,11.60
2019-04-23T21:25:47.637Z,11.59
2019-04-23T21:28:47.575Z,11.56
2019-04-23T21:31:11.511Z,11.63
2019-04-23T21:36:37.845Z,11.63
2019-04-23T21:42:01.941Z,11.69
2019-04-23T21:47:04.618Z,11.81
2019-04-23T21:49:50.366Z,11.86
2019-04-23T21:54:49.564Z,11.87
2019-04-23T21:57:31.007Z,11.79
2019-04-23T21:59:56.063Z,11.73
2019-04-23T22:02:28.587Z,11.69
2019-04-23T22:05:21.361Z,11.64
2019-04-23T22:07:40.171Z,11.62
2019-04-23T22:10:02.678Z,11.92
2019-04-23T22:12:52.714Z,12.21
2019-04-23T22:15:13.072Z,12.15
2019-04-23T22:17:45.974Z,11.97
2019-04-23T22:25:34.878Z,11.65
2019-04-23T22:27:58.233Z,11.41
2019-04-23T22:30:54.715Z,11.44
2019-04-23T22:33:09.878Z,11.39
2019-04-23T22:35:48.235Z,11.32
2019-04-23T22:38:21.126Z,11.29
2019-04-23T22:40:56.169Z,11.18
2019-04-23T22:46:08.673Z,10.88
2019-04-23T22:48:47.824Z,10.82
2019-04-23T22:53:50.787Z,10.63
2019-04-23T22:56:20.734Z,10.44
2019-04-23T23:01:43.134Z,10.35
2019-04-23T23:04:04.799Z,10.28
2019-04-23T23:06:48.898Z,10.20
2019-04-23T23:09:23.115Z,10.14
2019-04-23T23:16:57.001Z,10.20
2019-04-23T23:19:31.662Z,10.18
2019-04-23T23:24:39.569Z,9.99
2019-04-23T23:27:12.821Z,9.84
2019-04-23T23:29:49.670Z,9.81
2019-04-23T23:32:22.790Z,9.75
2019-04-23T23:35:12.917Z,9.86
2019-04-23T23:37:19.210Z,9.89
2019-04-23T23:40:05.075Z,10.10
2019-04-23T23:42:36.792Z,10.29
2019-04-23T23:45:10.234Z,10.34
2019-04-23T23:47:38.074Z,10.37
2019-04-23T23:50:22.809Z,10.35
2019-04-23T23:53:03.995Z,10.34
2019-04-23T23:58:04.718Z,10.12
